createdAt,value
2023-01-03T00:02:15.483Z,35.50
2023-01-03T00:04:48.985Z,34.88
2023-01-03T00:07:33.813Z,33.60
2023-01-03T00:10:02.626Z,33.25
2023-01-03T00:12:32.137Z,34.92
2023-01-03T00:15:00.470Z,34.63
2023-01-03T00:17:28.497Z,34.03
2023-01-03T00:19:55.967Z,34.92
2023-01-03T00:22:23.496Z,34.17
2023-01-03T00:24:52.948Z,33.65
2023-01-03T00:27:20.418Z,35.92
2023-01-03T00:29:47.821Z,35.03
2023-01-03T00:32:15.656Z,34.53
2023-01-03T00:34:44.706Z,34.13
2023-01-03T00:37:12.342Z,34.88
2023-01-03T00:39:40.057Z,36.67
2023-01-03T00:42:07.808Z,36.72
2023-01-03T00:44:35.266Z,37.40
2023-01-03T00:47:03.030Z,36.80
2023-01-03T00:49:30.704Z,40.13
2023-01-03T00:51:58.332Z,39.78
2023-01-03T00:54:25.997Z,39.50
2023-01-03T00:56:53.991Z,42.65
2023-01-03T00:59:22.105Z,41.20
2023-01-03T01:01:51.476Z,41.10
2023-01-03T01:04:24.924Z,38.55
2023-01-03T01:06:54.178Z,38.75
2023-01-03T01:09:23.300Z,38.15
2023-01-03T01:11:51.174Z,37.40
2023-01-03T01:14:22.525Z,36.15
2023-01-03T01:17:22.230Z,37.22
2023-01-03T01:19:50.244Z,36.42
2023-01-03T01:22:17.670Z,35.55
2023-01-03T01:24:45.291Z,36.25
2023-01-03T01:27:12.694Z,37.72
2023-01-03T01:29:40.181Z,35.85
2023-01-03T01:32:07.925Z,35.63
2023-01-03T01:34:36.176Z,35.95
2023-01-03T01:37:03.621Z,33.83
2023-01-03T01:39:31.058Z,32.78
2023-01-03T01:42:20.813Z,35.13
2023-01-03T01:44:49.169Z,34.20
2023-01-03T01:47:28.935Z,32.88
2023-01-03T01:50:16.580Z,32.55
2023-01-03T01:52:49.618Z,33.17
2023-01-03T01:55:19.272Z,32.20
2023-01-03T01:57:47.071Z,32.10
2023-01-03T02:00:15.015Z,31.70
2023-01-03T02:02:45.818Z,30.75
2023-01-03T02:05:13.655Z,31.55
2023-01-03T02:07:41.129Z,33.03
2023-01-03T02:10:10.595Z,33.60
2023-01-03T02:13:02.385Z,34.10
2023-01-03T02:15:42.537Z,34.88
2023-01-03T02:18:19.154Z,35.75
2023-01-03T02:21:05.486Z,37.90
2023-01-03T02:23:51.417Z,37.40
2023-01-03T02:26:44.965Z,40.17
2023-01-03T02:29:21.250Z,40.88
2023-01-03T02:32:06.931Z,42.25
2023-01-03T02:34:45.360Z,40.55
2023-01-03T02:37:34.775Z,43.30
2023-01-03T02:40:29.884Z,42.63
2023-01-03T02:43:03.130Z,39.85
2023-01-03T02:45:33.408Z,42.70
2023-01-03T02:48:11.715Z,43.40
2023-01-03T02:50:52.845Z,41.97
2023-01-03T02:53:22.913Z,39.38
2023-01-03T02:55:51.852Z,36.60
2023-01-03T02:58:22.033Z,37.05
2023-01-03T03:00:52.627Z,34.17
2023-01-03T03:03:22.492Z,36.03
2023-01-03T03:06:10.243Z,36.42
2023-01-03T03:08:37.858Z,37.05
2023-01-03T03:11:24.115Z,35.72
2023-01-03T03:13:54.081Z,35.40
2023-01-03T03:16:43.048Z,35.00
2023-01-03T03:19:36.267Z,34.67
2023-01-03T03:22:24.039Z,34.70
2023-01-03T03:24:51.533Z,34.42
2023-01-03T03:27:40.160Z,34.13
2023-01-03T03:30:10.836Z,34.20
2023-01-03T03:32:39.167Z,34.40
2023-01-03T03:35:09.897Z,34.90
2023-01-03T03:37:38.947Z,33.65
2023-01-03T03:40:25.636Z,33.15
2023-01-03T03:43:16.353Z,32.65
2023-01-03T03:45:46.824Z,35.15
2023-01-03T03:48:30.872Z,33.08
2023-01-03T03:51:15.982Z,32.47
2023-01-03T03:53:45.079Z,32.72
2023-01-03T03:56:18.374Z,32.30
2023-01-03T03:58:49.142Z,33.22
2023-01-03T04:01:19.879Z,34.45
2023-01-03T04:03:48.284Z,32.90
2023-01-03T04:06:21.267Z,33.17
2023-01-03T04:08:48.924Z,32.92
2023-01-03T04:11:16.412Z,32.72
2023-01-03T04:13:43.894Z,32.80
2023-01-03T04:16:12.028Z,32.67
2023-01-03T04:18:39.513Z,33.92
2023-01-03T04:21:06.976Z,33.38
2023-01-03T04:23:34.414Z,33.33
2023-01-03T04:26:01.910Z,34.20
2023-01-03T04:28:29.434Z,33.03
2023-01-03T04:30:56.883Z,33.25
2023-01-03T04:33:25.506Z,32.70
2023-01-03T04:35:52.918Z,32.50
2023-01-03T04:38:20.367Z,31.88
2023-01-03T04:40:47.820Z,33.53
2023-01-03T04:43:33.744Z,32.70
2023-01-03T04:46:01.260Z,30.88
2023-01-03T04:48:28.643Z,32.55
2023-01-03T04:50:56.752Z,32.58
2023-01-03T04:53:24.539Z,34.88
2023-01-03T04:55:52.728Z,34.22
2023-01-03T04:58:20.253Z,38.67
2023-01-03T05:00:48.003Z,37.72
2023-01-03T05:03:17.550Z,37.55
2023-01-03T05:05:46.600Z,36.47
2023-01-03T05:08:14.029Z,37.22
2023-01-03T05:10:41.815Z,34.63
2023-01-03T05:13:09.432Z,47.30
2023-01-03T05:15:37.893Z,57.60
2023-01-03T05:18:05.609Z,54.72
2023-01-03T05:20:51.684Z,52.50
2023-01-03T05:23:37.777Z,53.72
2023-01-03T05:26:23.572Z,56.53
2023-01-03T05:31:18.319Z,51.50
2023-01-03T05:33:45.892Z,50.72
2023-01-03T05:36:13.306Z,52.03
2023-01-03T05:38:40.798Z,56.15
2023-01-03T05:41:08.351Z,50.65
2023-01-03T05:43:35.808Z,47.42
2023-01-03T05:46:03.333Z,49.15
2023-01-03T05:48:30.863Z,53.33
2023-01-03T05:50:59.167Z,58.33
2023-01-03T05:53:26.624Z,55.00
2023-01-03T05:55:54.068Z,50.70
2023-01-03T05:58:21.653Z,44.35
2023-01-03T06:00:49.094Z,45.28
2023-01-03T06:03:16.619Z,45.38
2023-01-03T06:05:50.031Z,44.08
2023-01-03T06:08:18.258Z,47.28
2023-01-03T06:10:45.730Z,48.30
2023-01-03T06:13:13.228Z,52.20
2023-01-03T06:15:40.714Z,55.40
2023-01-03T06:18:08.193Z,53.85
2023-01-03T06:20:35.997Z,54.00
2023-01-03T06:23:03.399Z,57.05
2023-01-03T06:25:30.853Z,63.30
2023-01-03T06:27:58.389Z,64.15
2023-01-03T06:30:26.588Z,60.83
2023-01-03T06:32:54.029Z,55.53
2023-01-03T06:35:21.474Z,50.28
2023-01-03T06:37:48.892Z,48.10
2023-01-03T06:40:16.286Z,45.75
2023-01-03T06:42:43.908Z,45.67
2023-01-03T06:45:31.446Z,47.45
2023-01-03T06:48:18.070Z,42.88
2023-01-03T06:51:04.323Z,42.50
2023-01-03T06:53:34.196Z,42.72
2023-01-03T06:56:01.670Z,41.83
2023-01-03T06:58:29.133Z,38.70
2023-01-03T07:00:57.625Z,37.97
2023-01-03T07:03:25.262Z,37.08
2023-01-03T07:05:52.802Z,34.55
2023-01-03T07:08:20.495Z,34.10
2023-01-03T07:10:48.021Z,33.35
2023-01-03T07:13:34.085Z,31.40
2023-01-03T07:16:01.620Z,32.47
2023-01-03T07:18:29.070Z,34.92
2023-01-03T07:20:56.548Z,33.90
2023-01-03T07:23:23.973Z,33.90
2023-01-03T07:25:55.706Z,32.83
2023-01-03T07:28:23.902Z,32.25
2023-01-03T07:30:51.307Z,30.90
2023-01-03T07:33:19.300Z,32.55
2023-01-03T07:35:46.799Z,30.45
2023-01-03T07:38:14.747Z,30.23
2023-01-03T07:40:42.166Z,32.08
2023-01-03T07:43:29.824Z,31.33
2023-01-03T07:45:57.395Z,30.45
2023-01-03T07:48:24.892Z,30.23
2023-01-03T07:50:57.768Z,28.55
2023-01-03T07:53:25.511Z,28.70
2023-01-03T07:55:52.989Z,26.88
2023-01-03T07:58:20.414Z,27.58
2023-01-03T08:00:47.771Z,26.92
2023-01-03T08:03:15.752Z,28.30
2023-01-03T08:05:43.220Z,27.52
2023-01-03T08:08:11.115Z,29.20
2023-01-03T08:10:57.372Z,29.77
2023-01-03T08:13:25.240Z,28.80
2023-01-03T08:15:56.368Z,29.88
2023-01-03T08:18:25.301Z,28.83
2023-01-03T08:20:55.593Z,28.30
2023-01-03T08:23:23.818Z,28.65
2023-01-03T08:25:51.241Z,28.55
2023-01-03T08:28:18.858Z,29.23
2023-01-03T08:30:50.268Z,28.75
2023-01-03T08:33:19.417Z,28.63
2023-01-03T08:35:48.991Z,28.27
2023-01-03T08:38:19.280Z,28.20
2023-01-03T08:40:47.331Z,28.45
2023-01-03T08:43:15.422Z,28.25
2023-01-03T08:45:42.937Z,26.83
2023-01-03T08:48:11.501Z,27.10
2023-01-03T08:50:39.368Z,26.38
2023-01-03T08:53:06.777Z,27.50
2023-01-03T08:55:34.622Z,25.33
2023-01-03T08:58:02.022Z,25.92
2023-01-03T09:00:29.976Z,25.23
2023-01-03T09:03:00.622Z,25.23
2023-01-03T09:05:28.520Z,23.67
2023-01-03T09:07:56.315Z,21.52
2023-01-03T09:10:24.093Z,22.35
2023-01-03T09:12:51.884Z,22.40
2023-01-03T09:15:19.435Z,24.75
2023-01-03T09:17:49.359Z,21.55
2023-01-03T09:20:18.075Z,21.67
2023-01-03T09:22:45.788Z,22.25
2023-01-03T09:25:13.169Z,20.13
2023-01-03T09:27:40.571Z,19.00
2023-01-03T09:30:08.234Z,18.50
2023-01-03T09:32:35.741Z,19.17
2023-01-03T09:35:03.235Z,20.63
2023-01-03T09:37:30.751Z,18.70
2023-01-03T09:39:58.408Z,19.08
2023-01-03T09:42:45.897Z,18.80
2023-01-03T09:45:25.144Z,18.60
2023-01-03T09:47:52.628Z,17.83
2023-01-03T09:50:39.311Z,19.27
2023-01-03T09:53:51.252Z,17.20
2023-01-03T09:59:33.916Z,15.13
2023-01-03T10:02:38.921Z,15.32
2023-01-03T10:05:09.207Z,15.68
2023-01-03T10:07:51.880Z,15.88
2023-01-03T10:10:19.350Z,15.90
2023-01-03T10:13:01.964Z,17.25
2023-01-03T10:15:47.974Z,16.98
2023-01-03T10:18:21.571Z,17.48
2023-01-03T10:20:50.010Z,16.63
2023-01-03T10:23:17.387Z,16.60
2023-01-03T10:25:46.203Z,17.17
2023-01-03T10:28:18.127Z,17.92
2023-01-03T10:31:07.252Z,18.13
2023-01-03T10:33:47.655Z,17.88
2023-01-03T10:36:19.672Z,16.75
2023-01-03T10:38:52.944Z,16.73
2023-01-03T10:41:39.253Z,16.38
2023-01-03T10:44:06.993Z,15.10
2023-01-03T10:46:34.458Z,15.80
2023-01-03T10:49:30.005Z,16.38
2023-01-03T10:52:18.377Z,16.80
2023-01-03T10:54:46.578Z,16.23
2023-01-03T10:57:34.210Z,16.70
2023-01-03T11:00:01.606Z,17.42
2023-01-03T11:02:29.132Z,17.65
2023-01-03T11:05:12.615Z,17.38
2023-01-03T11:07:49.486Z,17.92
2023-01-03T11:10:17.824Z,18.20
2023-01-03T11:12:46.893Z,18.35
2023-01-03T11:15:38.847Z,18.60
2023-01-03T11:18:16.910Z,16.98
2023-01-03T11:20:44.317Z,18.25
2023-01-03T11:23:31.915Z,18.05
2023-01-03T11:26:07.041Z,17.52
2023-01-03T11:28:43.510Z,18.30
2023-01-03T11:31:14.888Z,18.20
2023-01-03T11:33:42.344Z,17.67
2023-01-03T11:36:09.701Z,16.75
2023-01-03T11:38:40.157Z,18.17
2023-01-03T11:41:10.720Z,18.02
2023-01-03T11:43:57.125Z,17.80
2023-01-03T11:46:36.624Z,19.15
2023-01-03T11:49:07.151Z,17.95
2023-01-03T11:52:07.045Z,18.58
2023-01-03T11:54:53.473Z,17.90
2023-01-03T11:57:47.527Z,17.40
2023-01-03T12:00:27.253Z,17.38
2023-01-03T12:03:07.880Z,17.63
2023-01-03T12:05:43.098Z,18.42
2023-01-03T12:10:40.901Z,17.60
2023-01-03T12:13:17.499Z,18.00
2023-01-03T12:15:53.171Z,17.88
2023-01-03T12:18:29.323Z,25.52
2023-01-03T12:20:58.890Z,18.00
2023-01-03T12:23:29.042Z,16.40
2023-01-03T12:25:58.850Z,18.02
2023-01-03T12:28:26.331Z,17.20
2023-01-03T12:30:56.596Z,17.60
2023-01-03T12:33:32.013Z,18.02
2023-01-03T12:36:06.141Z,17.20
2023-01-03T12:38:38.047Z,18.10
2023-01-03T12:41:12.138Z,18.05
2023-01-03T12:44:02.880Z,16.05
2023-01-03T12:46:36.183Z,14.13
2023-01-03T12:49:03.789Z,13.68
2023-01-03T12:51:31.272Z,13.95
2023-01-03T12:54:06.352Z,13.20
2023-01-03T12:59:20.247Z,12.00
2023-01-03T13:01:54.397Z,12.23
2023-01-03T13:04:31.321Z,11.65
2023-01-03T13:07:16.722Z,11.82
2023-01-03T13:09:58.880Z,11.30
2023-01-03T13:12:30.762Z,11.43
2023-01-03T13:14:58.206Z,11.95
2023-01-03T13:17:26.785Z,11.43
2023-01-03T13:19:55.949Z,11.82
2023-01-03T13:22:29.276Z,10.93
2023-01-03T13:25:16.675Z,12.68
2023-01-03T13:27:50.821Z,12.13
2023-01-03T13:30:20.766Z,12.45
2023-01-03T13:32:49.863Z,11.80
2023-01-03T13:35:17.326Z,11.57
2023-01-03T13:37:50.425Z,11.45
2023-01-03T13:40:21.157Z,11.32
2023-01-03T13:42:48.733Z,11.90
2023-01-03T13:45:17.460Z,11.68
2023-01-03T13:47:47.584Z,10.65
2023-01-03T13:50:22.661Z,10.15
2023-01-03T13:55:33.826Z,11.35
2023-01-03T13:58:01.551Z,11.68
2023-01-03T14:00:30.481Z,11.90
2023-01-03T14:03:04.429Z,12.18
2023-01-03T14:05:51.048Z,12.68
2023-01-03T14:08:47.679Z,14.40
2023-01-03T14:11:28.876Z,15.35
2023-01-03T14:13:59.717Z,14.25
2023-01-03T14:16:39.078Z,16.67
2023-01-03T14:19:17.411Z,17.02
2023-01-03T14:21:49.670Z,18.92
2023-01-03T14:24:25.587Z,19.88
2023-01-03T14:26:53.726Z,19.52
2023-01-03T14:29:26.226Z,17.40
2023-01-03T14:31:56.051Z,17.85
2023-01-03T14:34:29.781Z,17.40
2023-01-03T14:37:24.950Z,17.05
2023-01-03T14:39:56.470Z,17.27
2023-01-03T14:42:24.288Z,17.65
2023-01-03T14:44:57.896Z,22.42
2023-01-03T14:47:51.979Z,22.23
2023-01-03T14:50:25.270Z,21.05
2023-01-03T14:52:55.085Z,21.27
2023-01-03T14:55:27.363Z,30.60
2023-01-03T14:57:55.564Z,26.58
2023-01-03T15:00:32.221Z,31.75
2023-01-03T15:03:01.098Z,32.42
2023-01-03T15:05:40.738Z,27.02
2023-01-03T15:08:09.499Z,48.25
2023-01-03T15:10:36.875Z,71.47
2023-01-03T15:13:05.274Z,84.63
2023-01-03T15:15:40.312Z,104.50
2023-01-03T15:18:09.929Z,98.07
2023-01-03T15:20:39.371Z,66.43
2023-01-03T15:45:58.472Z,59.28
2023-01-03T15:48:27.102Z,63.63
2023-01-03T15:50:56.749Z,76.88
2023-01-03T15:53:24.138Z,77.75
2023-01-03T15:55:53.188Z,80.03
2023-01-03T15:58:20.589Z,88.90
2023-01-03T16:00:48.924Z,84.90
2023-01-03T16:03:17.706Z,83.85
2023-01-03T16:05:45.729Z,79.47
2023-01-03T16:08:26.433Z,79.95
2023-01-03T16:10:54.083Z,81.85
2023-01-03T16:13:23.343Z,82.72
2023-01-03T16:15:51.473Z,81.05
2023-01-03T16:18:26.634Z,78.43
2023-01-03T16:20:55.778Z,79.93
2023-01-03T16:23:25.154Z,74.80
2023-01-03T16:25:52.785Z,79.78
2023-01-03T16:28:20.281Z,78.82
2023-01-03T16:30:47.787Z,141.68
2023-01-03T16:33:21.692Z,227.73
2023-01-03T16:35:49.420Z,188.93
2023-01-03T16:38:17.794Z,194.65
2023-01-03T16:40:46.341Z,176.80
2023-01-03T16:43:14.419Z,161.65
2023-01-03T16:45:47.207Z,151.77
2023-01-03T16:48:19.320Z,143.48
2023-01-03T16:50:47.261Z,175.20
2023-01-03T16:53:23.529Z,170.73
2023-01-03T16:55:54.596Z,168.65
2023-01-03T16:58:23.979Z,156.88
2023-01-03T17:00:51.991Z,160.18
2023-01-03T17:03:19.754Z,149.27
2023-01-03T17:05:48.061Z,140.52
2023-01-03T17:08:23.384Z,134.60
2023-01-03T17:10:53.353Z,138.30
2023-01-03T17:13:32.167Z,130.30
2023-01-03T17:16:00.578Z,125.28
2023-01-03T17:18:29.479Z,119.60
2023-01-03T17:21:01.665Z,151.10
2023-01-03T17:23:30.712Z,137.48
2023-01-03T17:25:58.070Z,137.00
2023-01-03T17:28:25.480Z,114.18
2023-01-03T17:30:56.671Z,123.28
2023-01-03T17:33:31.944Z,125.30
2023-01-03T17:36:01.523Z,126.28
2023-01-03T17:38:29.632Z,126.43
2023-01-03T17:40:57.444Z,124.38
2023-01-03T17:43:26.077Z,117.63
2023-01-03T17:46:22.618Z,119.72
2023-01-03T17:49:09.577Z,114.00
2023-01-03T17:51:37.177Z,110.65
2023-01-03T17:54:04.705Z,110.10
2023-01-03T17:56:32.191Z,114.82
2023-01-03T17:58:59.776Z,114.55
2023-01-03T18:01:27.218Z,113.32
2023-01-03T18:03:54.857Z,112.93
2023-01-03T18:06:23.946Z,117.38
2023-01-03T18:08:52.287Z,116.97
2023-01-03T18:11:20.554Z,100.15
2023-01-03T18:13:49.382Z,72.18
2023-01-03T18:16:18.496Z,58.05
2023-01-03T18:18:46.316Z,43.95
2023-01-03T18:21:18.032Z,42.28
2023-01-03T18:23:46.024Z,46.88
2023-01-03T18:26:16.391Z,67.57
2023-01-03T18:28:43.947Z,68.03
2023-01-03T18:31:16.425Z,82.22
2023-01-03T18:33:44.231Z,87.70
2023-01-03T18:36:19.068Z,88.90
2023-01-03T18:38:47.176Z,94.57
2023-01-03T18:41:23.041Z,91.03
2023-01-03T18:43:52.195Z,94.55
2023-01-03T18:46:19.686Z,102.38
2023-01-03T18:48:47.350Z,124.78
2023-01-03T18:51:19.380Z,119.85
2023-01-03T18:53:48.816Z,116.30
2023-01-03T18:56:29.103Z,115.88
2023-01-03T18:59:02.192Z,123.15
2023-01-03T19:01:30.438Z,124.45
2023-01-03T19:03:58.051Z,112.20
2023-01-03T19:06:33.917Z,104.45
2023-01-03T19:09:03.268Z,84.10
2023-01-03T19:11:35.239Z,72.90
2023-01-03T19:14:04.099Z,72.75
2023-01-03T19:16:34.438Z,77.22
2023-01-03T19:19:02.306Z,76.63
2023-01-03T19:21:32.361Z,77.68
2023-01-03T19:23:59.847Z,80.63
2023-01-03T19:26:27.269Z,74.30
2023-01-03T19:28:56.667Z,74.50
2023-01-03T19:31:25.760Z,70.65
2023-01-03T19:33:53.623Z,69.97
2023-01-03T19:36:22.066Z,69.95
2023-01-03T19:38:49.948Z,73.07
2023-01-03T19:41:19.024Z,67.75
2023-01-03T19:43:47.221Z,70.10
2023-01-03T19:46:16.533Z,71.18
2023-01-03T19:48:45.393Z,63.67
2023-01-03T19:51:13.521Z,62.95
2023-01-03T19:53:42.503Z,60.08
2023-01-03T19:56:28.041Z,60.65
2023-01-03T19:59:02.736Z,57.72
2023-01-03T20:04:18.680Z,65.15
2023-01-03T20:06:46.279Z,55.25
2023-01-03T20:09:13.653Z,58.65
2023-01-03T20:11:41.465Z,56.15
2023-01-03T20:14:19.342Z,50.58
2023-01-03T20:16:47.333Z,51.08
2023-01-03T20:19:16.762Z,51.53
2023-01-03T20:21:44.880Z,51.42
2023-01-03T20:24:32.499Z,55.17
2023-01-03T20:26:59.965Z,59.13
2023-01-03T20:29:27.327Z,57.05
2023-01-03T20:31:54.889Z,61.40
2023-01-03T20:34:22.329Z,57.38
2023-01-03T20:36:49.797Z,57.72
2023-01-03T20:39:20.152Z,61.10
2023-01-03T20:41:47.537Z,56.28
2023-01-03T20:44:14.986Z,60.17
2023-01-03T20:46:42.880Z,59.10
2023-01-03T20:49:30.691Z,57.38
2023-01-03T20:51:58.045Z,66.30
2023-01-03T20:54:25.523Z,63.45
2023-01-03T20:56:52.873Z,62.88
2023-01-03T20:59:21.301Z,65.72
2023-01-03T21:01:49.149Z,60.25
2023-01-03T21:04:17.204Z,63.80
2023-01-03T21:06:45.896Z,65.25
2023-01-03T21:09:14.383Z,64.30
2023-01-03T21:11:41.882Z,55.35
2023-01-03T21:14:09.493Z,50.25
2023-01-03T21:16:38.480Z,47.08
2023-01-03T21:19:12.025Z,49.05
2023-01-03T21:21:39.732Z,52.97
2023-01-03T21:24:07.645Z,53.17
2023-01-03T21:26:35.206Z,55.08
2023-01-03T21:29:03.522Z,56.40
2023-01-03T21:31:31.003Z,59.42
2023-01-03T21:33:58.410Z,61.22
2023-01-03T21:36:29.983Z,61.28
2023-01-03T21:38:58.326Z,54.65
2023-01-03T21:41:30.026Z,58.92
2023-01-03T21:43:58.938Z,60.08
2023-01-03T21:46:26.977Z,57.30
2023-01-03T21:48:55.147Z,59.50
2023-01-03T21:51:33.423Z,58.88
2023-01-03T21:54:06.571Z,56.78
2023-01-03T21:56:36.090Z,57.15
2023-01-03T21:59:04.503Z,55.40
2023-01-03T22:01:51.943Z,55.83
2023-01-03T22:04:19.579Z,71.53
2023-01-03T22:06:46.943Z,71.90
2023-01-03T22:09:34.321Z,72.68
2023-01-03T22:12:02.267Z,70.78
2023-01-03T22:14:29.601Z,65.57
2023-01-03T22:16:57.101Z,53.85
2023-01-03T22:19:24.454Z,49.72
2023-01-03T22:21:51.832Z,45.38
2023-01-03T22:24:19.179Z,44.78
2023-01-03T22:26:47.283Z,42.63
2023-01-03T22:29:14.633Z,45.55
2023-01-03T22:31:42.079Z,44.83
2023-01-03T22:34:09.599Z,48.05
2023-01-03T22:36:36.958Z,43.58
2023-01-03T22:39:04.480Z,43.05
2023-01-03T22:41:31.839Z,33.40
2023-01-03T22:43:59.226Z,30.08
2023-01-03T22:46:26.726Z,33.58
2023-01-03T22:48:56.394Z,33.47
2023-01-03T22:51:23.924Z,53.78
2023-01-03T22:53:52.061Z,52.17
2023-01-03T22:56:19.622Z,54.13
2023-01-03T22:58:47.187Z,44.22
2023-01-03T23:01:16.138Z,40.65
2023-01-03T23:03:43.965Z,40.63
2023-01-03T23:06:13.709Z,42.13
2023-01-03T23:08:42.252Z,41.92
2023-01-03T23:11:34.005Z,41.08
2023-01-03T23:14:03.264Z,43.65
2023-01-03T23:16:32.379Z,42.65
2023-01-03T23:19:02.005Z,44.05
2023-01-03T23:21:29.422Z,44.60
2023-01-03T23:23:56.841Z,38.80
2023-01-03T23:26:24.299Z,39.83
2023-01-03T23:28:55.314Z,39.72
2023-01-03T23:31:22.939Z,51.55
2023-01-03T23:33:50.373Z,45.40
2023-01-03T23:36:18.414Z,41.70
2023-01-03T23:38:45.879Z,38.40
2023-01-03T23:41:13.369Z,39.10
2023-01-03T23:43:40.731Z,39.60
2023-01-03T23:46:08.433Z,39.03
2023-01-03T23:48:35.918Z,41.90
2023-01-03T23:51:04.374Z,37.22
2023-01-03T23:53:32.195Z,37.05
2023-01-03T23:55:59.934Z,36.10
2023-01-03T23:58:27.301Z,39.58
